sensor_id;sensor_type;location;lat;lon;timestamp;temperature;humidity
4910;DHT22;2470;49.868;8.660;2022-10-29T00:02:24;19.30;99.90
4910;DHT22;2470;49.868;8.660;2022-10-29T00:04:49;19.30;99.90
4910;DHT22;2470;49.868;8.660;2022-10-29T00:07:15;19.30;99.90
4910;DHT22;2470;49.868;8.660;2022-10-29T00:09:40;19.30;99.90
4910;DHT22;2470;49.868;8.660;2022-10-29T00:12:06;19.30;99.90
4910;DHT22;2470;49.868;8.660;2022-10-29T00:14:32;19.20;99.90
4910;DHT22;2470;49.868;8.660;2022-10-29T00:16:57;19.20;99.90
4910;DHT22;2470;49.868;8.660;2022-10-29T00:19:23;19.20;99.90
4910;DHT22;2470;49.868;8.660;2022-10-29T00:21:49;19.10;99.90
4910;DHT22;2470;49.868;8.660;2022-10-29T00:24:15;19.10;99.90
4910;DHT22;2470;49.868;8.660;2022-10-29T00:26:41;19.10;99.90
4910;DHT22;2470;49.868;8.660;2022-10-29T00:29:06;19.00;99.90
4910;DHT22;2470;49.868;8.660;2022-10-29T00:31:32;19.00;99.90
4910;DHT22;2470;49.868;8.660;2022-10-29T00:33:57;19.00;99.90
4910;DHT22;2470;49.868;8.660;2022-10-29T00:36:25;19.00;99.90
4910;DHT22;2470;49.868;8.660;2022-10-29T00:38:51;19.00;99.90
4910;DHT22;2470;49.868;8.660;2022-10-29T00:41:25;18.90;99.90
4910;DHT22;2470;49.868;8.660;2022-10-29T00:46:42;18.90;99.90
4910;DHT22;2470;49.868;8.660;2022-10-29T00:49:09;18.90;99.90
4910;DHT22;2470;49.868;8.660;2022-10-29T00:51:36;18.90;99.90
4910;DHT22;2470;49.868;8.660;2022-10-29T00:54:06;18.90;99.90
4910;DHT22;2470;49.868;8.660;2022-10-29T00:56:37;18.80;99.90
4910;DHT22;2470;49.868;8.660;2022-10-29T00:59:06;18.80;99.90
4910;DHT22;2470;49.868;8.660;2022-10-29T01:01:32;18.80;99.90
4910;DHT22;2470;49.868;8.660;2022-10-29T01:03:58;18.80;99.90
4910;DHT22;2470;49.868;8.660;2022-10-29T01:06:25;18.80;99.90
4910;DHT22;2470;49.868;8.660;2022-10-29T01:08:52;18.80;99.90
4910;DHT22;2470;49.868;8.660;2022-10-29T01:11:39;18.80;99.90
4910;DHT22;2470;49.868;8.660;2022-10-29T01:14:39;18.80;99.90
4910;DHT22;2470;49.868;8.660;2022-10-29T01:17:32;18.80;99.90
4910;DHT22;2470;49.868;8.660;2022-10-29T01:20:17;18.90;99.90
4910;DHT22;2470;49.868;8.660;2022-10-29T01:23:32;18.80;99.90
4910;DHT22;2470;49.868;8.660;2022-10-29T01:31:59;18.70;99.90
4910;DHT22;2470;49.868;8.660;2022-10-29T01:37:39;18.70;99.90
4910;DHT22;2470;49.868;8.660;2022-10-29T01:43:05;18.60;99.90
4910;DHT22;2470;49.868;8.660;2022-10-29T01:48:09;18.50;99.90
4910;DHT22;2470;49.868;8.660;2022-10-29T01:50:37;18.50;99.90
4910;DHT22;2470;49.868;8.660;2022-10-29T01:53:05;18.50;99.90
4910;DHT22;2470;49.868;8.660;2022-10-29T01:55:32;18.50;99.90
4910;DHT22;2470;49.868;8.660;2022-10-29T01:58:03;18.50;99.90
4910;DHT22;2470;49.868;8.660;2022-10-29T02:03:56;18.40;99.90
4910;DHT22;2470;49.868;8.660;2022-10-29T02:06:42;18.40;99.90
4910;DHT22;2470;49.868;8.660;2022-10-29T02:09:29;18.30;99.90
4910;DHT22;2470;49.868;8.660;2022-10-29T02:12:16;18.30;99.90
4910;DHT22;2470;49.868;8.660;2022-10-29T02:14:55;18.20;99.90
4910;DHT22;2470;49.868;8.660;2022-10-29T02:17:21;18.20;99.90
4910;DHT22;2470;49.868;8.660;2022-10-29T02:19:47;18.10;99.90
4910;DHT22;2470;49.868;8.660;2022-10-29T02:22:13;18.10;99.90
4910;DHT22;2470;49.868;8.660;2022-10-29T02:24:38;18.00;99.90
4910;DHT22;2470;49.868;8.660;2022-10-29T02:27:04;18.00;99.90
4910;DHT22;2470;49.868;8.660;2022-10-29T02:29:29;17.90;99.90
4910;DHT22;2470;49.868;8.660;2022-10-29T02:31:55;17.90;99.90
4910;DHT22;2470;49.868;8.660;2022-10-29T02:34:20;17.90;99.90
4910;DHT22;2470;49.868;8.660;2022-10-29T02:36:46;17.90;99.90
4910;DHT22;2470;49.868;8.660;2022-10-29T02:39:11;17.90;99.90
4910;DHT22;2470;49.868;8.660;2022-10-29T02:41:37;17.90;99.90
4910;DHT22;2470;49.868;8.660;2022-10-29T02:44:02;17.90;99.90
4910;DHT22;2470;49.868;8.660;2022-10-29T02:46:28;17.90;99.90
4910;DHT22;2470;49.868;8.660;2022-10-29T02:48:54;17.80;99.90
4910;DHT22;2470;49.868;8.660;2022-10-29T02:51:20;17.80;99.90
4910;DHT22;2470;49.868;8.660;2022-10-29T02:53:46;17.80;99.90
4910;DHT22;2470;49.868;8.660;2022-10-29T02:56:11;17.80;99.90
4910;DHT22;2470;49.868;8.660;2022-10-29T02:58:37;17.80;99.90
4910;DHT22;2470;49.868;8.660;2022-10-29T03:01:03;17.90;99.90
4910;DHT22;2470;49.868;8.660;2022-10-29T03:03:29;17.90;99.90
4910;DHT22;2470;49.868;8.660;2022-10-29T03:05:54;17.90;99.90
4910;DHT22;2470;49.868;8.660;2022-10-29T03:08:20;17.90;99.90
4910;DHT22;2470;49.868;8.660;2022-10-29T03:10:46;17.90;99.90
4910;DHT22;2470;49.868;8.660;2022-10-29T03:13:11;17.90;99.90
4910;DHT22;2470;49.868;8.660;2022-10-29T03:15:37;17.90;99.90
4910;DHT22;2470;49.868;8.660;2022-10-29T03:18:03;17.90;99.90
4910;DHT22;2470;49.868;8.660;2022-10-29T03:20:29;17.80;99.90
4910;DHT22;2470;49.868;8.660;2022-10-29T03:22:55;17.80;99.90
4910;DHT22;2470;49.868;8.660;2022-10-29T03:25:20;17.70;99.90
4910;DHT22;2470;49.868;8.660;2022-10-29T03:27:46;17.70;99.90
4910;DHT22;2470;49.868;8.660;2022-10-29T03:30:14;17.60;99.90
4910;DHT22;2470;49.868;8.660;2022-10-29T03:32:41;17.60;99.90
4910;DHT22;2470;49.868;8.660;2022-10-29T03:35:08;17.60;99.90
4910;DHT22;2470;49.868;8.660;2022-10-29T03:37:34;17.50;99.90
4910;DHT22;2470;49.868;8.660;2022-10-29T03:40:00;17.50;99.90
4910;DHT22;2470;49.868;8.660;2022-10-29T03:42:25;17.50;99.90
4910;DHT22;2470;49.868;8.660;2022-10-29T03:44:51;17.50;99.90
4910;DHT22;2470;49.868;8.660;2022-10-29T03:47:16;17.50;99.90
4910;DHT22;2470;49.868;8.660;2022-10-29T03:49:42;17.50;99.90
4910;DHT22;2470;49.868;8.660;2022-10-29T03:52:07;17.50;99.90
4910;DHT22;2470;49.868;8.660;2022-10-29T03:54:33;17.40;99.90
4910;DHT22;2470;49.868;8.660;2022-10-29T03:56:58;17.40;99.90
4910;DHT22;2470;49.868;8.660;2022-10-29T03:59:24;17.40;99.90
4910;DHT22;2470;49.868;8.660;2022-10-29T04:01:49;17.30;99.90
4910;DHT22;2470;49.868;8.660;2022-10-29T04:04:15;17.30;99.90
4910;DHT22;2470;49.868;8.660;2022-10-29T04:06:40;17.20;99.90
4910;DHT22;2470;49.868;8.660;2022-10-29T04:09:06;17.20;99.90
4910;DHT22;2470;49.868;8.660;2022-10-29T04:11:31;17.20;99.90
4910;DHT22;2470;49.868;8.660;2022-10-29T04:13:57;17.20;99.90
4910;DHT22;2470;49.868;8.660;2022-10-29T04:16:23;17.20;99.90
4910;DHT22;2470;49.868;8.660;2022-10-29T04:18:48;17.10;99.90
4910;DHT22;2470;49.868;8.660;2022-10-29T04:21:15;17.10;99.90
4910;DHT22;2470;49.868;8.660;2022-10-29T04:23:40;17.10;99.90
4910;DHT22;2470;49.868;8.660;2022-10-29T04:26:06;17.20;99.90
4910;DHT22;2470;49.868;8.660;2022-10-29T04:28:31;17.20;99.90
4910;DHT22;2470;49.868;8.660;2022-10-29T04:30:57;17.20;99.90
4910;DHT22;2470;49.868;8.660;2022-10-29T04:33:27;17.30;99.90
4910;DHT22;2470;49.868;8.660;2022-10-29T04:35:53;17.30;99.90
4910;DHT22;2470;49.868;8.660;2022-10-29T04:38:19;17.40;99.90
4910;DHT22;2470;49.868;8.660;2022-10-29T04:40:45;17.40;99.90
4910;DHT22;2470;49.868;8.660;2022-10-29T04:43:10;17.40;99.90
4910;DHT22;2470;49.868;8.660;2022-10-29T04:45:36;17.30;99.90
4910;DHT22;2470;49.868;8.660;2022-10-29T04:48:03;17.30;99.90
4910;DHT22;2470;49.868;8.660;2022-10-29T04:50:30;17.30;99.90
4910;DHT22;2470;49.868;8.660;2022-10-29T04:53:03;17.30;99.90
4910;DHT22;2470;49.868;8.660;2022-10-29T04:55:29;17.30;99.90
4910;DHT22;2470;49.868;8.660;2022-10-29T04:57:55;17.30;99.90
4910;DHT22;2470;49.868;8.660;2022-10-29T05:00:22;17.30;99.90
4910;DHT22;2470;49.868;8.660;2022-10-29T05:02:48;17.30;99.90
4910;DHT22;2470;49.868;8.660;2022-10-29T05:05:18;17.30;99.90
4910;DHT22;2470;49.868;8.660;2022-10-29T05:07:44;17.30;99.90
4910;DHT22;2470;49.868;8.660;2022-10-29T05:10:10;17.30;99.90
4910;DHT22;2470;49.868;8.660;2022-10-29T05:12:36;17.30;99.90
4910;DHT22;2470;49.868;8.660;2022-10-29T05:15:02;17.30;99.90
4910;DHT22;2470;49.868;8.660;2022-10-29T05:17:27;17.30;99.90
4910;DHT22;2470;49.868;8.660;2022-10-29T05:19:53;17.30;99.90
4910;DHT22;2470;49.868;8.660;2022-10-29T05:22:22;17.30;99.90
4910;DHT22;2470;49.868;8.660;2022-10-29T05:24:48;17.30;99.90
4910;DHT22;2470;49.868;8.660;2022-10-29T05:27:13;17.20;99.90
4910;DHT22;2470;49.868;8.660;2022-10-29T05:29:39;17.20;99.90
4910;DHT22;2470;49.868;8.660;2022-10-29T05:32:04;17.20;99.90
4910;DHT22;2470;49.868;8.660;2022-10-29T05:34:30;17.30;99.90
4910;DHT22;2470;49.868;8.660;2022-10-29T05:36:55;17.30;99.90
4910;DHT22;2470;49.868;8.660;2022-10-29T05:39:21;17.30;99.90
4910;DHT22;2470;49.868;8.660;2022-10-29T05:41:46;17.30;99.90
4910;DHT22;2470;49.868;8.660;2022-10-29T05:44:12;17.30;99.90
4910;DHT22;2470;49.868;8.660;2022-10-29T05:46:38;17.30;99.90
4910;DHT22;2470;49.868;8.660;2022-10-29T05:49:03;17.30;99.90
4910;DHT22;2470;49.868;8.660;2022-10-29T05:51:29;17.30;99.90
4910;DHT22;2470;49.868;8.660;2022-10-29T05:53:54;17.30;99.90
4910;DHT22;2470;49.868;8.660;2022-10-29T05:56:20;17.20;99.90
4910;DHT22;2470;49.868;8.660;2022-10-29T05:58:48;17.20;99.90
4910;DHT22;2470;49.868;8.660;2022-10-29T06:01:14;17.20;99.90
4910;DHT22;2470;49.868;8.660;2022-10-29T06:03:40;17.10;99.90
4910;DHT22;2470;49.868;8.660;2022-10-29T06:06:05;17.10;99.90
4910;DHT22;2470;49.868;8.660;2022-10-29T06:08:31;17.10;99.90
4910;DHT22;2470;49.868;8.660;2022-10-29T06:11:00;17.10;99.90
4910;DHT22;2470;49.868;8.660;2022-10-29T06:13:25;17.10;99.90
4910;DHT22;2470;49.868;8.660;2022-10-29T06:15:56;17.10;99.90
4910;DHT22;2470;49.868;8.660;2022-10-29T06:18:21;17.10;99.90
4910;DHT22;2470;49.868;8.660;2022-10-29T06:20:47;17.10;99.90
4910;DHT22;2470;49.868;8.660;2022-10-29T06:23:12;17.10;99.90
4910;DHT22;2470;49.868;8.660;2022-10-29T06:25:38;17.10;99.90
4910;DHT22;2470;49.868;8.660;2022-10-29T06:28:09;17.10;99.90
4910;DHT22;2470;49.868;8.660;2022-10-29T06:30:36;17.00;99.90
4910;DHT22;2470;49.868;8.660;2022-10-29T06:33:03;17.00;99.90
4910;DHT22;2470;49.868;8.660;2022-10-29T06:35:29;17.00;99.90
4910;DHT22;2470;49.868;8.660;2022-10-29T06:37:55;17.00;99.90
4910;DHT22;2470;49.868;8.660;2022-10-29T06:40:20;17.10;99.90
4910;DHT22;2470;49.868;8.660;2022-10-29T06:42:46;17.10;99.90
4910;DHT22;2470;49.868;8.660;2022-10-29T06:45:12;17.10;99.90
4910;DHT22;2470;49.868;8.660;2022-10-29T06:47:39;17.10;99.90
4910;DHT22;2470;49.868;8.660;2022-10-29T06:50:05;17.10;99.90
4910;DHT22;2470;49.868;8.660;2022-10-29T06:52:31;17.20;99.90
4910;DHT22;2470;49.868;8.660;2022-10-29T06:54:57;17.20;99.90
4910;DHT22;2470;49.868;8.660;2022-10-29T06:57:23;17.20;99.90
4910;DHT22;2470;49.868;8.660;2022-10-29T06:59:49;17.20;99.90
4910;DHT22;2470;49.868;8.660;2022-10-29T07:02:16;17.20;99.90
4910;DHT22;2470;49.868;8.660;2022-10-29T07:04:43;17.20;99.90
4910;DHT22;2470;49.868;8.660;2022-10-29T07:07:08;17.30;99.90
4910;DHT22;2470;49.868;8.660;2022-10-29T07:09:34;17.30;99.90
4910;DHT22;2470;49.868;8.660;2022-10-29T07:11:59;17.30;99.90
4910;DHT22;2470;49.868;8.660;2022-10-29T07:14:25;17.30;99.90
4910;DHT22;2470;49.868;8.660;2022-10-29T07:16:50;17.30;99.90
4910;DHT22;2470;49.868;8.660;2022-10-29T07:19:17;17.40;99.90
4910;DHT22;2470;49.868;8.660;2022-10-29T07:21:42;17.40;99.90
4910;DHT22;2470;49.868;8.660;2022-10-29T07:24:08;17.40;99.90
4910;DHT22;2470;49.868;8.660;2022-10-29T07:26:35;17.60;99.90
4910;DHT22;2470;49.868;8.660;2022-10-29T07:29:00;17.50;99.90
4910;DHT22;2470;49.868;8.660;2022-10-29T07:31:26;17.50;99.90
4910;DHT22;2470;49.868;8.660;2022-10-29T07:33:53;17.50;99.90
4910;DHT22;2470;49.868;8.660;2022-10-29T07:36:18;17.50;99.90
4910;DHT22;2470;49.868;8.660;2022-10-29T07:38:44;17.50;99.90
4910;DHT22;2470;49.868;8.660;2022-10-29T07:41:09;17.50;99.90
4910;DHT22;2470;49.868;8.660;2022-10-29T07:43:35;17.50;99.90
4910;DHT22;2470;49.868;8.660;2022-10-29T07:46:00;17.60;99.90
4910;DHT22;2470;49.868;8.660;2022-10-29T07:48:26;17.60;99.90
4910;DHT22;2470;49.868;8.660;2022-10-29T07:50:51;17.60;99.90
4910;DHT22;2470;49.868;8.660;2022-10-29T07:53:17;17.70;99.90
4910;DHT22;2470;49.868;8.660;2022-10-29T07:55:43;17.70;99.90
4910;DHT22;2470;49.868;8.660;2022-10-29T07:58:10;17.80;99.90
4910;DHT22;2470;49.868;8.660;2022-10-29T08:00:38;17.90;99.90
4910;DHT22;2470;49.868;8.660;2022-10-29T08:03:04;17.90;99.90
4910;DHT22;2470;49.868;8.660;2022-10-29T08:05:30;17.90;99.90
4910;DHT22;2470;49.868;8.660;2022-10-29T08:07:56;18.00;99.90
4910;DHT22;2470;49.868;8.660;2022-10-29T08:10:23;18.00;99.90
4910;DHT22;2470;49.868;8.660;2022-10-29T08:12:51;18.10;99.90
4910;DHT22;2470;49.868;8.660;2022-10-29T08:15:17;18.00;99.90
4910;DHT22;2470;49.868;8.660;2022-10-29T08:17:43;18.10;99.90
4910;DHT22;2470;49.868;8.660;2022-10-29T08:20:08;18.10;99.90
4910;DHT22;2470;49.868;8.660;2022-10-29T08:22:34;18.20;99.90
4910;DHT22;2470;49.868;8.660;2022-10-29T08:25:00;18.20;99.90
4910;DHT22;2470;49.868;8.660;2022-10-29T08:27:26;18.20;99.90
4910;DHT22;2470;49.868;8.660;2022-10-29T08:29:51;18.20;99.90
4910;DHT22;2470;49.868;8.660;2022-10-29T08:32:17;18.20;99.90
4910;DHT22;2470;49.868;8.660;2022-10-29T08:34:42;18.30;99.90
4910;DHT22;2470;49.868;8.660;2022-10-29T08:37:08;18.30;99.90
4910;DHT22;2470;49.868;8.660;2022-10-29T08:39:33;18.20;99.90
4910;DHT22;2470;49.868;8.660;2022-10-29T08:45:29;18.20;99.90
4910;DHT22;2470;49.868;8.660;2022-10-29T08:48:19;18.20;99.90
4910;DHT22;2470;49.868;8.660;2022-10-29T08:50:52;18.30;99.90
4910;DHT22;2470;49.868;8.660;2022-10-29T08:53:23;18.30;99.90
4910;DHT22;2470;49.868;8.660;2022-10-29T08:55:50;18.40;99.90
4910;DHT22;2470;49.868;8.660;2022-10-29T08:58:26;18.40;99.90
4910;DHT22;2470;49.868;8.660;2022-10-29T09:00:56;18.50;99.90
4910;DHT22;2470;49.868;8.660;2022-10-29T09:03:22;18.50;99.90
4910;DHT22;2470;49.868;8.660;2022-10-29T09:08:43;18.60;99.90
4910;DHT22;2470;49.868;8.660;2022-10-29T09:11:41;18.60;99.90
4910;DHT22;2470;49.868;8.660;2022-10-29T09:17:01;18.60;99.90
4910;DHT22;2470;49.868;8.660;2022-10-29T09:25:02;18.80;99.90
4910;DHT22;2470;49.868;8.660;2022-10-29T09:33:25;18.80;99.90
4910;DHT22;2470;49.868;8.660;2022-10-29T09:35:57;18.80;99.90
4910;DHT22;2470;49.868;8.660;2022-10-29T09:38:36;18.90;99.90
4910;DHT22;2470;49.868;8.660;2022-10-29T09:41:07;18.90;99.90
4910;DHT22;2470;49.868;8.660;2022-10-29T09:43:58;19.00;99.90
4910;DHT22;2470;49.868;8.660;2022-10-29T09:46:47;19.00;99.90
4910;DHT22;2470;49.868;8.660;2022-10-29T09:49:40;19.00;99.90
4910;DHT22;2470;49.868;8.660;2022-10-29T09:54:38;19.10;99.90
4910;DHT22;2470;49.868;8.660;2022-10-29T09:57:04;19.10;99.90
4910;DHT22;2470;49.868;8.660;2022-10-29T09:59:39;19.20;99.90
4910;DHT22;2470;49.868;8.660;2022-10-29T10:05:03;19.40;99.90
4910;DHT22;2470;49.868;8.660;2022-10-29T10:07:29;19.50;99.90
4910;DHT22;2470;49.868;8.660;2022-10-29T10:09:58;19.60;99.90
4910;DHT22;2470;49.868;8.660;2022-10-29T10:12:42;19.60;99.90
4910;DHT22;2470;49.868;8.660;2022-10-29T10:20:40;19.80;99.90
4910;DHT22;2470;49.868;8.660;2022-10-29T10:23:24;20.00;99.90
4910;DHT22;2470;49.868;8.660;2022-10-29T10:25:56;20.20;99.90
4910;DHT22;2470;49.868;8.660;2022-10-29T10:28:31;20.50;99.90
4910;DHT22;2470;49.868;8.660;2022-10-29T10:31:11;20.60;99.90
4910;DHT22;2470;49.868;8.660;2022-10-29T10:33:52;20.90;99.90
4910;DHT22;2470;49.868;8.660;2022-10-29T10:36:21;21.10;99.90
4910;DHT22;2470;49.868;8.660;2022-10-29T10:38:58;21.30;99.90
4910;DHT22;2470;49.868;8.660;2022-10-29T10:41:27;21.30;99.90
4910;DHT22;2470;49.868;8.660;2022-10-29T10:44:02;21.40;99.90
4910;DHT22;2470;49.868;8.660;2022-10-29T10:46:38;21.50;99.90
4910;DHT22;2470;49.868;8.660;2022-10-29T10:51:37;22.00;99.90
4910;DHT22;2470;49.868;8.660;2022-10-29T10:54:27;22.00;99.90
4910;DHT22;2470;49.868;8.660;2022-10-29T11:00:01;22.10;99.90
4910;DHT22;2470;49.868;8.660;2022-10-29T11:02:36;22.10;99.90
4910;DHT22;2470;49.868;8.660;2022-10-29T11:05:21;22.00;99.90
4910;DHT22;2470;49.868;8.660;2022-10-29T11:08:23;22.10;99.90
4910;DHT22;2470;49.868;8.660;2022-10-29T11:10:54;22.30;99.90
4910;DHT22;2470;49.868;8.660;2022-10-29T11:13:22;22.30;99.90
4910;DHT22;2470;49.868;8.660;2022-10-29T11:16:19;22.40;99.90
4910;DHT22;2470;49.868;8.660;2022-10-29T11:18:55;22.50;99.90
4910;DHT22;2470;49.868;8.660;2022-10-29T11:24:04;22.70;99.90
4910;DHT22;2470;49.868;8.660;2022-10-29T11:27:02;23.00;99.90
4910;DHT22;2470;49.868;8.660;2022-10-29T11:29:39;23.20;99.90
4910;DHT22;2470;49.868;8.660;2022-10-29T11:32:11;23.40;99.90
4910;DHT22;2470;49.868;8.660;2022-10-29T11:34:49;23.60;99.90
4910;DHT22;2470;49.868;8.660;2022-10-29T11:39:55;24.00;99.90
4910;DHT22;2470;49.868;8.660;2022-10-29T11:42:22;24.10;99.90
4910;DHT22;2470;49.868;8.660;2022-10-29T11:44:49;24.20;99.90
4910;DHT22;2470;49.868;8.660;2022-10-29T11:47:28;24.20;99.90
4910;DHT22;2470;49.868;8.660;2022-10-29T11:50:24;24.20;99.90
4910;DHT22;2470;49.868;8.660;2022-10-29T11:53:29;24.10;99.90
4910;DHT22;2470;49.868;8.660;2022-10-29T11:56:10;24.00;99.90
4910;DHT22;2470;49.868;8.660;2022-10-29T11:58:44;23.90;99.90
4910;DHT22;2470;49.868;8.660;2022-10-29T12:01:50;23.80;99.90
4910;DHT22;2470;49.868;8.660;2022-10-29T12:04:32;23.60;99.90
4910;DHT22;2470;49.868;8.660;2022-10-29T12:07:21;23.40;99.90
4910;DHT22;2470;49.868;8.660;2022-10-29T12:13:03;22.70;99.90
4910;DHT22;2470;49.868;8.660;2022-10-29T12:15:41;22.40;99.90
4910;DHT22;2470;49.868;8.660;2022-10-29T12:20:49;22.30;99.90
4910;DHT22;2470;49.868;8.660;2022-10-29T12:23:48;22.20;99.90
4910;DHT22;2470;49.868;8.660;2022-10-29T12:31:34;22.20;99.90
4910;DHT22;2470;49.868;8.660;2022-10-29T12:34:18;22.30;99.90
4910;DHT22;2470;49.868;8.660;2022-10-29T12:39:31;22.30;99.90
4910;DHT22;2470;49.868;8.660;2022-10-29T12:42:13;22.30;99.90
4910;DHT22;2470;49.868;8.660;2022-10-29T12:47:40;22.20;99.90
4910;DHT22;2470;49.868;8.660;2022-10-29T12:50:37;22.20;99.90
4910;DHT22;2470;49.868;8.660;2022-10-29T12:55:36;22.30;99.90
4910;DHT22;2470;49.868;8.660;2022-10-29T13:01:04;22.30;99.90
4910;DHT22;2470;49.868;8.660;2022-10-29T13:09:24;22.60;99.90
4910;DHT22;2470;49.868;8.660;2022-10-29T13:11:58;22.90;99.90
4910;DHT22;2470;49.868;8.660;2022-10-29T13:14:44;23.10;99.90
4910;DHT22;2470;49.868;8.660;2022-10-29T13:17:30;23.20;99.90
4910;DHT22;2470;49.868;8.660;2022-10-29T13:20:04;23.40;99.90
4910;DHT22;2470;49.868;8.660;2022-10-29T13:22:56;23.60;99.90
4910;DHT22;2470;49.868;8.660;2022-10-29T13:30:47;23.00;99.90
4910;DHT22;2470;49.868;8.660;2022-10-29T13:35:58;24.00;99.90
4910;DHT22;2470;49.868;8.660;2022-10-29T13:43:53;24.00;99.90
4910;DHT22;2470;49.868;8.660;2022-10-29T13:49:18;23.30;99.90
4910;DHT22;2470;49.868;8.660;2022-10-29T13:54:21;23.00;99.90
4910;DHT22;2470;49.868;8.660;2022-10-29T13:56:53;23.00;99.90
4910;DHT22;2470;49.868;8.660;2022-10-29T13:59:27;22.90;99.90
4910;DHT22;2470;49.868;8.660;2022-10-29T14:02:12;22.80;99.90
4910;DHT22;2470;49.868;8.660;2022-10-29T14:04:40;22.80;99.90
4910;DHT22;2470;49.868;8.660;2022-10-29T14:07:13;23.10;99.90
4910;DHT22;2470;49.868;8.660;2022-10-29T14:09:48;23.50;99.90
4910;DHT22;2470;49.868;8.660;2022-10-29T14:12:19;23.80;99.90
4910;DHT22;2470;49.868;8.660;2022-10-29T14:15:10;24.20;99.90
4910;DHT22;2470;49.868;8.660;2022-10-29T14:17:35;24.50;99.90
4910;DHT22;2470;49.868;8.660;2022-10-29T14:20:01;24.60;99.90
4910;DHT22;2470;49.868;8.660;2022-10-29T14:22:35;24.40;99.90
4910;DHT22;2470;49.868;8.660;2022-10-29T14:28:29;24.00;99.90
4910;DHT22;2470;49.868;8.660;2022-10-29T14:33:32;23.50;99.90
4910;DHT22;2470;49.868;8.660;2022-10-29T14:41:14;22.70;99.90
4910;DHT22;2470;49.868;8.660;2022-10-29T14:43:41;22.50;99.90
4910;DHT22;2470;49.868;8.660;2022-10-29T14:46:21;22.30;99.90
4910;DHT22;2470;49.868;8.660;2022-10-29T14:48:53;22.20;99.90
4910;DHT22;2470;49.868;8.660;2022-10-29T14:51:21;22.10;99.90
4910;DHT22;2470;49.868;8.660;2022-10-29T14:53:56;22.00;99.90
4910;DHT22;2470;49.868;8.660;2022-10-29T14:56:30;21.90;99.90
4910;DHT22;2470;49.868;8.660;2022-10-29T14:58:56;21.80;99.90
4910;DHT22;2470;49.868;8.660;2022-10-29T15:01:21;21.70;99.90
4910;DHT22;2470;49.868;8.660;2022-10-29T15:03:55;21.50;99.90
4910;DHT22;2470;49.868;8.660;2022-10-29T15:06:28;21.40;99.90
4910;DHT22;2470;49.868;8.660;2022-10-29T15:08:57;21.40;99.90
4910;DHT22;2470;49.868;8.660;2022-10-29T15:11:41;21.30;99.90
4910;DHT22;2470;49.868;8.660;2022-10-29T15:16:49;21.20;99.90
4910;DHT22;2470;49.868;8.660;2022-10-29T15:19:15;21.10;99.90
4910;DHT22;2470;49.868;8.660;2022-10-29T15:21:42;21.10;99.90
4910;DHT22;2470;49.868;8.660;2022-10-29T15:24:09;21.00;99.90
4910;DHT22;2470;49.868;8.660;2022-10-29T15:26:44;20.90;99.90
4910;DHT22;2470;49.868;8.660;2022-10-29T15:29:12;20.90;99.90
4910;DHT22;2470;49.868;8.660;2022-10-29T15:31:45;20.80;99.90
4910;DHT22;2470;49.868;8.660;2022-10-29T15:36:50;20.70;99.90
4910;DHT22;2470;49.868;8.660;2022-10-29T15:39:53;20.60;99.90
4910;DHT22;2470;49.868;8.660;2022-10-29T15:42:24;20.60;99.90
4910;DHT22;2470;49.868;8.660;2022-10-29T15:47:37;20.50;99.90
4910;DHT22;2470;49.868;8.660;2022-10-29T15:50:04;20.40;99.90
4910;DHT22;2470;49.868;8.660;2022-10-29T15:52:38;20.40;99.90
4910;DHT22;2470;49.868;8.660;2022-10-29T15:55:30;20.30;99.90
4910;DHT22;2470;49.868;8.660;2022-10-29T15:58:16;20.20;99.90
4910;DHT22;2470;49.868;8.660;2022-10-29T16:00:43;20.20;99.90
4910;DHT22;2470;49.868;8.660;2022-10-29T16:03:20;20.10;99.90
4910;DHT22;2470;49.868;8.660;2022-10-29T16:05:48;20.10;99.90
4910;DHT22;2470;49.868;8.660;2022-10-29T16:10:49;19.90;99.90
4910;DHT22;2470;49.868;8.660;2022-10-29T16:13:16;19.80;99.90
4910;DHT22;2470;49.868;8.660;2022-10-29T16:15:42;19.80;99.90
4910;DHT22;2470;49.868;8.660;2022-10-29T16:18:07;19.70;99.90
4910;DHT22;2470;49.868;8.660;2022-10-29T16:20:33;19.70;99.90
4910;DHT22;2470;49.868;8.660;2022-10-29T16:22:58;19.70;99.90
4910;DHT22;2470;49.868;8.660;2022-10-29T16:25:26;19.60;99.90
4910;DHT22;2470;49.868;8.660;2022-10-29T16:27:52;19.60;99.90
4910;DHT22;2470;49.868;8.660;2022-10-29T16:30:19;19.60;99.90
4910;DHT22;2470;49.868;8.660;2022-10-29T16:32:45;19.50;99.90
4910;DHT22;2470;49.868;8.660;2022-10-29T16:35:22;19.50;99.90
4910;DHT22;2470;49.868;8.660;2022-10-29T16:37:48;19.40;99.90
4910;DHT22;2470;49.868;8.660;2022-10-29T16:40:15;19.30;99.90
4910;DHT22;2470;49.868;8.660;2022-10-29T16:42:41;19.30;99.90
4910;DHT22;2470;49.868;8.660;2022-10-29T16:45:12;19.30;99.90
4910;DHT22;2470;49.868;8.660;2022-10-29T16:47:38;19.20;99.90
4910;DHT22;2470;49.868;8.660;2022-10-29T16:50:04;19.20;99.90
4910;DHT22;2470;49.868;8.660;2022-10-29T16:52:30;19.10;99.90
4910;DHT22;2470;49.868;8.660;2022-10-29T16:54:55;19.10;99.90
4910;DHT22;2470;49.868;8.660;2022-10-29T16:57:21;19.00;99.90
4910;DHT22;2470;49.868;8.660;2022-10-29T16:59:48;19.00;99.90
4910;DHT22;2470;49.868;8.660;2022-10-29T17:02:13;19.00;99.90
4910;DHT22;2470;49.868;8.660;2022-10-29T17:04:39;19.00;99.90
4910;DHT22;2470;49.868;8.660;2022-10-29T17:07:05;18.90;99.90
4910;DHT22;2470;49.868;8.660;2022-10-29T17:09:30;18.90;99.90
4910;DHT22;2470;49.868;8.660;2022-10-29T17:11:59;18.90;99.90
4910;DHT22;2470;49.868;8.660;2022-10-29T17:14:25;18.90;99.90
4910;DHT22;2470;49.868;8.660;2022-10-29T17:16:51;18.90;99.90
4910;DHT22;2470;49.868;8.660;2022-10-29T17:19:16;18.80;99.90
4910;DHT22;2470;49.868;8.660;2022-10-29T17:21:42;18.80;99.90
4910;DHT22;2470;49.868;8.660;2022-10-29T17:24:07;18.70;99.90
4910;DHT22;2470;49.868;8.660;2022-10-29T17:26:33;18.70;99.90
4910;DHT22;2470;49.868;8.660;2022-10-29T17:28:58;18.70;99.90
4910;DHT22;2470;49.868;8.660;2022-10-29T17:31:24;18.70;99.90
4910;DHT22;2470;49.868;8.660;2022-10-29T17:33:51;18.70;99.90
4910;DHT22;2470;49.868;8.660;2022-10-29T17:36:17;18.60;99.90
4910;DHT22;2470;49.868;8.660;2022-10-29T17:38:44;18.60;99.90
4910;DHT22;2470;49.868;8.660;2022-10-29T17:41:10;18.60;99.90
4910;DHT22;2470;49.868;8.660;2022-10-29T17:43:36;18.50;99.90
4910;DHT22;2470;49.868;8.660;2022-10-29T17:46:01;18.40;99.90
4910;DHT22;2470;49.868;8.660;2022-10-29T17:48:27;18.40;99.90
4910;DHT22;2470;49.868;8.660;2022-10-29T17:50:58;18.30;99.90
4910;DHT22;2470;49.868;8.660;2022-10-29T17:53:25;18.30;99.90
4910;DHT22;2470;49.868;8.660;2022-10-29T17:55:51;18.30;99.90
4910;DHT22;2470;49.868;8.660;2022-10-29T17:58:18;18.30;99.90
4910;DHT22;2470;49.868;8.660;2022-10-29T18:00:44;18.20;99.90
4910;DHT22;2470;49.868;8.660;2022-10-29T18:03:10;18.10;99.90
4910;DHT22;2470;49.868;8.660;2022-10-29T18:05:35;18.20;99.90
4910;DHT22;2470;49.868;8.660;2022-10-29T18:08:01;18.10;99.90
4910;DHT22;2470;49.868;8.660;2022-10-29T18:10:26;18.10;99.90
4910;DHT22;2470;49.868;8.660;2022-10-29T18:12:53;18.10;99.90
4910;DHT22;2470;49.868;8.660;2022-10-29T18:15:19;18.10;99.90
4910;DHT22;2470;49.868;8.660;2022-10-29T18:17:44;18.10;99.90
4910;DHT22;2470;49.868;8.660;2022-10-29T18:20:10;18.10;99.90
4910;DHT22;2470;49.868;8.660;2022-10-29T18:22:36;18.00;99.90
4910;DHT22;2470;49.868;8.660;2022-10-29T18:25:01;18.00;99.90
4910;DHT22;2470;49.868;8.660;2022-10-29T18:27:27;18.00;99.90
4910;DHT22;2470;49.868;8.660;2022-10-29T18:29:52;18.00;99.90
4910;DHT22;2470;49.868;8.660;2022-10-29T18:32:18;18.10;99.90